Time;durP1;ratioP1;P1;durP2;ratioP2;P2;SDS_P1;SDS_P2;PMS_P1;PMS_P2;Temp;Humidity;BMP_temperature;BMP_pressure;BME280_temperature;BME280_humidity;BME280_pressure;Samples;Min_cycle;Max_cycle;Signal;HPM_P1;HPM_P2
2022/10/31 00:00:21;;;;;;;3.42;1.67;;;;;;;8.91;100.00;102123.44;5053395;28;20051;-80
2022/10/31 00:02:47;;;;;;;4.63;2.15;;;;;;;8.90;100.00;102122.59;5053298;28;20037;-80
2022/10/31 00:05:12;;;;;;;5.60;1.85;;;;;;;8.91;100.00;102126.97;5051605;28;20040;-80
2022/10/31 00:07:38;;;;;;;2.53;1.77;;;;;;;8.91;100.00;102124.31;5052113;28;20115;-80
2022/10/31 00:10:04;;;;;;;3.97;1.80;;;;;;;8.92;100.00;102130.47;5051457;28;20481;-80
2022/10/31 00:12:29;;;;;;;3.17;1.60;;;;;;;8.90;100.00;102130.56;5052188;28;20064;-80
2022/10/31 00:14:54;;;;;;;4.65;1.90;;;;;;;8.91;100.00;102137.59;5052911;28;20160;-80
2022/10/31 00:17:20;;;;;;;5.95;2.15;;;;;;;8.91;100.00;102136.72;5051292;28;20356;-80
2022/10/31 00:19:45;;;;;;;4.10;1.75;;;;;;;8.94;100.00;102136.50;5034286;28;20148;-80
2022/10/31 00:22:11;;;;;;;3.42;2.10;;;;;;;8.99;100.00;102137.09;5052392;28;20048;-80
2022/10/31 00:24:36;;;;;;;3.30;1.92;;;;;;;9.05;100.00;102139.34;5051821;28;20041;-81
2022/10/31 00:27:01;;;;;;;2.67;1.80;;;;;;;9.07;100.00;102141.91;5051119;28;20044;-81
2022/10/31 00:29:27;;;;;;;4.95;2.15;;;;;;;9.09;100.00;102142.66;5051562;28;20504;-83
2022/10/31 00:31:52;;;;;;;2.90;1.92;;;;;;;9.07;100.00;102144.56;5052313;28;20466;-81
2022/10/31 00:34:18;;;;;;;3.22;2.28;;;;;;;9.08;100.00;102146.28;5052254;28;20449;-80
2022/10/31 00:36:43;;;;;;;4.72;2.50;;;;;;;9.05;100.00;102147.31;5051981;28;20036;-80
2022/10/31 00:39:09;;;;;;;3.78;2.40;;;;;;;9.03;100.00;102140.41;5051411;28;20087;-80
2022/10/31 00:41:34;;;;;;;2.83;2.13;;;;;;;9.05;100.00;102144.66;5051995;28;20032;-81
2022/10/31 00:43:59;;;;;;;5.53;3.15;;;;;;;9.09;100.00;102145.31;5052271;28;20036;-81
2022/10/31 00:46:25;;;;;;;4.68;2.20;;;;;;;9.06;100.00;102145.50;5052287;28;20033;-80
2022/10/31 00:48:50;;;;;;;6.55;2.88;;;;;;;9.09;100.00;102148.84;5051410;28;20033;-81
2022/10/31 00:51:15;;;;;;;5.20;2.38;;;;;;;9.11;100.00;102154.06;5052275;28;20037;-81
2022/10/31 00:53:41;;;;;;;3.63;1.90;;;;;;;9.09;100.00;102148.84;5051770;28;20033;-81
2022/10/31 00:56:06;;;;;;;3.58;2.67;;;;;;;9.12;100.00;102145.13;5052286;28;20044;-82
2022/10/31 00:58:32;;;;;;;3.47;2.70;;;;;;;9.18;100.00;102152.69;5051647;28;20032;-83
2022/10/31 01:00:57;;;;;;;5.82;2.47;;;;;;;9.15;100.00;102147.56;5052138;28;20029;-80
2022/10/31 01:03:28;;;;;;;3.55;2.42;;;;;;;9.15;100.00;102139.59;5052388;28;20025;-81
2022/10/31 01:05:58;;;;;;;3.95;2.70;;;;;;;9.12;100.00;102139.81;5051635;28;20040;-81
2022/10/31 01:08:23;;;;;;;3.58;2.60;;;;;;;9.07;100.00;102133.94;5050667;28;20350;-81
2022/10/31 01:11:00;;;;;;;3.08;2.20;;;;;;;9.03;100.00;102125.31;5051178;28;20037;-80
2022/10/31 01:13:25;;;;;;;6.43;3.30;;;;;;;8.99;100.00;102132.63;5051813;28;20025;-79
2022/10/31 01:15:58;;;;;;;3.78;2.38;;;;;;;8.95;100.00;102135.56;5052556;28;20303;-79
2022/10/31 01:18:24;;;;;;;6.13;2.95;;;;;;;8.91;100.00;102132.28;5056044;28;20094;-80
2022/10/31 01:21:11;;;;;;;3.80;2.88;;;;;;;8.91;100.00;102136.72;5055466;28;20061;-79
2022/10/31 01:23:37;;;;;;;5.40;2.70;;;;;;;8.90;100.00;102146.47;5055146;28;20108;-79
2022/10/31 01:26:11;;;;;;;3.60;2.78;;;;;;;8.84;100.00;102136.25;5055846;28;20549;-79
2022/10/31 01:28:39;;;;;;;3.63;2.80;;;;;;;8.79;100.00;102130.38;5055548;28;20045;-80
2022/10/31 01:31:07;;;;;;;3.72;2.80;;;;;;;8.75;100.00;102129.72;5054471;28;20073;-79
2022/10/31 01:33:32;;;;;;;7.60;3.83;;;;;;;8.74;100.00;102128.00;5055334;28;20036;-79
2022/10/31 01:35:58;;;;;;;4.07;2.83;;;;;;;8.70;100.00;102125.63;5055303;28;20385;-79
2022/10/31 01:38:23;;;;;;;3.13;2.55;;;;;;;8.66;100.00;102119.69;5055535;28;20033;-79
2022/10/31 01:40:49;;;;;;;3.75;3.00;;;;;;;8.63;100.00;102131.31;5055044;28;20341;-79
2022/10/31 01:43:15;;;;;;;3.85;2.40;;;;;;;8.59;100.00;102123.66;5055427;28;20036;-79
2022/10/31 01:45:43;;;;;;;4.90;3.03;;;;;;;8.54;100.00;102115.13;5055198;28;20033;-80
2022/10/31 01:48:19;;;;;;;5.88;3.00;;;;;;;8.51;100.00;102117.94;5055369;28;20135;-79
2022/10/31 01:50:48;;;;;;;5.95;3.25;;;;;;;8.45;100.00;102111.25;5055260;28;20040;-79
2022/10/31 01:53:15;;;;;;;4.75;3.00;;;;;;;8.41;100.00;102115.00;5055377;28;20028;-79
2022/10/31 01:55:44;;;;;;;4.82;3.10;;;;;;;8.35;100.00;102116.22;5054664;28;20465;-81
2022/10/31 01:58:16;;;;;;;3.88;3.05;;;;;;;8.32;100.00;102112.91;5055150;28;20029;-80
2022/10/31 02:00:45;;;;;;;6.28;3.95;;;;;;;8.31;100.00;102106.72;5054450;28;20471;-81
2022/10/31 02:03:11;;;;;;;4.35;2.90;;;;;;;8.29;100.00;102112.13;5055022;28;20033;-80
2022/10/31 02:05:38;;;;;;;4.53;3.08;;;;;;;8.25;100.00;102110.59;5055135;28;20033;-79
2022/10/31 02:08:09;;;;;;;4.03;3.13;;;;;;;8.20;100.00;102106.56;5054828;28;20037;-79
2022/10/31 02:10:36;;;;;;;3.92;3.15;;;;;;;8.12;100.00;102112.28;5054822;28;20108;-79
2022/10/31 02:13:05;;;;;;;5.63;3.70;;;;;;;8.05;100.00;102110.97;5054486;28;20063;-79
2022/10/31 02:15:32;;;;;;;3.65;3.00;;;;;;;7.96;100.00;102115.03;5054613;28;20025;-78
2022/10/31 02:17:58;;;;;;;4.18;3.00;;;;;;;7.88;100.00;102112.81;5054114;28;20033;-80
2022/10/31 02:20:29;;;;;;;3.70;3.08;;;;;;;7.80;100.00;102117.72;5054619;28;20438;-80
2022/10/31 02:23:19;;;;;;;5.07;3.05;;;;;;;7.72;100.00;102115.50;5053081;28;20025;-79
2022/10/31 02:26:03;;;;;;;3.50;2.97;;;;;;;7.64;100.00;102111.59;5054586;28;20074;-79
2022/10/31 02:29:18;;;;;;;4.30;2.83;;;;;;;7.56;100.00;102117.34;5053137;28;20060;-81
2022/10/31 02:32:15;;;;;;;4.00;3.40;;;;;;;7.47;100.00;102113.41;5012413;28;20048;-79
2022/10/31 02:34:55;;;;;;;4.35;3.60;;;;;;;7.41;100.00;102113.78;5053768;28;20045;-81
2022/10/31 02:37:45;;;;;;;7.88;3.88;;;;;;;7.34;100.00;102107.97;5054324;28;20473;-81
2022/10/31 02:40:26;;;;;;;6.57;3.72;;;;;;;7.29;100.00;102104.72;5054023;28;20112;-80
2022/10/31 02:43:19;;;;;;;3.20;2.90;;;;;;;7.21;100.00;102107.81;5053864;28;20140;-81
2022/10/31 02:46:10;;;;;;;4.38;3.30;;;;;;;7.16;100.00;102109.84;5054199;28;20114;-79
2022/10/31 02:48:38;;;;;;;;;;;;;;;7.12;100.00;102105.69;5048919;28;20048;-81
2022/10/31 02:51:04;;;;;;;4.63;3.78;;;;;;;7.07;100.00;102105.91;5053714;28;20082;-81
2022/10/31 02:53:34;;;;;;;6.40;4.35;;;;;;;7.06;100.00;102106.00;5053965;28;20500;-81
2022/10/31 02:56:18;;;;;;;7.88;4.90;;;;;;;7.08;100.00;102098.84;5053873;28;20094;-78
2022/10/31 02:58:53;;;;;;;5.97;4.38;;;;;;;7.14;100.00;102102.97;5054390;28;20041;-81
2022/10/31 03:01:45;;;;;;;9.80;5.30;;;;;;;7.23;100.00;102100.63;5054047;28;20025;-78
2022/10/31 03:04:37;;;;;;;9.32;5.75;;;;;;;7.37;100.00;102102.50;5053538;28;20094;-79
2022/10/31 03:07:19;;;;;;;7.22;5.40;;;;;;;7.43;100.00;102103.09;5053485;28;20055;-79
2022/10/31 03:09:56;;;;;;;8.60;5.50;;;;;;;7.49;100.00;102100.09;5054108;28;20033;-79
2022/10/31 03:12:38;;;;;;;9.27;6.13;;;;;;;7.52;100.00;102100.75;5053561;28;20053;-79
2022/10/31 03:15:04;;;;;;;7.95;5.63;;;;;;;7.56;100.00;102107.59;5053293;28;20033;-79
2022/10/31 03:18:06;;;;;;;8.55;6.22;;;;;;;7.61;100.00;102101.19;5052335;28;20075;-79
2022/10/31 03:20:45;;;;;;;8.57;5.25;;;;;;;7.62;100.00;102094.94;5053336;28;20068;-79
2022/10/31 03:23:15;;;;;;;8.88;5.80;;;;;;;7.58;100.00;102097.78;5052967;28;20029;-79
2022/10/31 03:25:43;;;;;;;6.40;4.50;;;;;;;7.53;100.00;102098.97;5053645;28;20029;-79
2022/10/31 03:28:12;;;;;;;5.88;4.55;;;;;;;7.46;100.00;102100.28;5052452;28;20068;-80
2022/10/31 03:30:41;;;;;;;9.40;5.80;;;;;;;7.40;100.00;102107.63;5053369;28;20109;-82
2022/10/31 03:33:13;;;;;;;7.93;4.88;;;;;;;7.33;100.00;102108.91;5053382;28;20056;-79
2022/10/31 03:35:44;;;;;;;8.82;5.75;;;;;;;7.28;100.00;102103.00;5053482;28;20073;-79
2022/10/31 03:38:12;;;;;;;10.85;6.70;;;;;;;7.27;100.00;102106.63;5052558;28;20477;-79
2022/10/31 03:40:40;;;;;;;11.52;6.75;;;;;;;7.30;100.00;102109.09;5053645;28;20033;-79
2022/10/31 03:43:10;;;;;;;9.25;6.65;;;;;;;7.32;100.00;102109.84;5056967;28;20059;-81
2022/10/31 03:45:41;;;;;;;10.27;6.40;;;;;;;7.36;100.00;102108.75;5053312;28;20052;-78
2022/10/31 03:48:06;;;;;;;12.48;7.72;;;;;;;7.38;100.00;102103.38;5051433;28;20031;-78
2022/10/31 03:50:40;;;;;;;9.32;6.25;;;;;;;7.43;100.00;102101.28;5053200;28;20028;-78
2022/10/31 03:53:22;;;;;;;9.32;5.50;;;;;;;7.44;100.00;102095.06;5051367;28;20029;-79
2022/10/31 03:56:17;;;;;;;10.90;7.25;;;;;;;7.47;100.00;102099.34;5053087;28;20529;-78
2022/10/31 03:58:52;;;;;;;11.57;7.57;;;;;;;7.47;100.00;102099.34;5048666;28;20044;-78
2022/10/31 04:01:20;;;;;;;10.38;6.65;;;;;;;7.40;100.00;102102.34;5052099;28;20480;-79
2022/10/31 04:03:46;;;;;;;12.10;6.50;;;;;;;7.46;100.00;102102.91;5051258;28;20088;-79
2022/10/31 04:06:15;;;;;;;12.23;8.23;;;;;;;7.45;100.00;102106.50;5052296;28;20044;-79
2022/10/31 04:08:48;;;;;;;13.45;7.80;;;;;;;7.52;100.00;102113.16;5052617;28;20083;-78
2022/10/31 04:11:18;;;;;;;13.77;8.93;;;;;;;7.51;100.00;102109.66;5052507;28;20040;-79
2022/10/31 04:13:45;;;;;;;11.75;7.35;;;;;;;7.53;100.00;102112.22;5052234;28;20021;-79
2022/10/31 04:16:13;;;;;;;10.52;6.88;;;;;;;7.51;100.00;102112.31;5052051;28;20034;-79
2022/10/31 04:18:38;;;;;;;11.60;7.85;;;;;;;7.47;100.00;102108.13;5051291;28;20131;-79
2022/10/31 04:21:06;;;;;;;14.32;7.47;;;;;;;7.44;100.00;102118.06;5052163;28;20040;-80
2022/10/31 04:23:32;;;;;;;10.70;7.25;;;;;;;7.41;100.00;102121.72;5052113;28;20385;-78
2022/10/31 04:25:58;;;;;;;18.52;9.60;;;;;;;7.41;100.00;102121.72;5052515;28;20067;-78
2022/10/31 04:28:23;;;;;;;16.00;9.55;;;;;;;7.39;100.00;102124.47;5051796;28;20076;-78
2022/10/31 04:30:48;;;;;;;16.45;10.35;;;;;;;7.42;100.00;102112.84;5052584;28;20029;-78
2022/10/31 04:33:14;;;;;;;14.73;9.25;;;;;;;7.44;100.00;102115.41;5051391;28;20040;-79
2022/10/31 04:35:40;;;;;;;16.00;7.85;;;;;;;7.44;100.00;102110.09;5051012;28;20120;-79
2022/10/31 04:38:05;;;;;;;11.70;8.02;;;;;;;7.41;100.00;102111.13;5052185;28;20094;-78
2022/10/31 04:40:30;;;;;;;10.43;7.10;;;;;;;7.39;100.00;102097.97;5051543;28;20044;-78
2022/10/31 04:42:56;;;;;;;16.42;7.20;;;;;;;7.35;100.00;102106.19;5052113;28;20423;-78
2022/10/31 04:45:21;;;;;;;12.38;6.75;;;;;;;7.28;100.00;102099.53;5051770;28;20033;-78
2022/10/31 04:47:46;;;;;;;8.80;6.38;;;;;;;7.20;100.00;102103.44;5050410;28;20033;-78
2022/10/31 04:50:12;;;;;;;10.05;6.15;;;;;;;7.13;100.00;102102.09;5049837;28;20025;-78
2022/10/31 04:52:45;;;;;;;12.48;7.30;;;;;;;7.10;100.00;102102.25;5051691;28;20452;-79
2022/10/31 04:55:11;;;;;;;13.48;7.70;;;;;;;7.05;100.00;102102.50;5051973;28;20029;-79
2022/10/31 04:57:44;;;;;;;8.40;5.60;;;;;;;7.00;100.00;102101.06;5052002;28;20037;-78
2022/10/31 05:00:11;;;;;;;11.45;7.35;;;;;;;6.96;100.00;102103.03;5051971;28;20036;-80
2022/10/31 05:02:46;;;;;;;13.63;7.22;;;;;;;6.92;100.00;102106.78;5050482;28;20115;-79
2022/10/31 05:05:13;;;;;;;8.88;6.53;;;;;;;6.88;100.00;102100.81;5051648;28;20036;-79
2022/10/31 05:07:43;;;;;;;9.77;5.97;;;;;;;6.85;100.00;102105.41;5051582;28;20033;-78
2022/10/31 05:10:10;;;;;;;11.43;7.53;;;;;;;6.84;100.00;102101.91;5051727;28;20509;-78
2022/10/31 05:12:36;;;;;;;14.07;8.27;;;;;;;6.84;100.00;102103.72;5051425;28;20040;-79
2022/10/31 05:15:02;;;;;;;13.13;7.70;;;;;;;6.82;100.00;102098.50;5051735;28;20025;-79
2022/10/31 05:17:27;;;;;;;11.43;6.05;;;;;;;6.77;100.00;102099.69;5051356;28;20040;-78
2022/10/31 05:19:52;;;;;;;8.27;6.10;;;;;;;6.71;100.00;102099.06;5051777;28;20477;-79
2022/10/31 05:22:18;;;;;;;13.68;7.40;;;;;;;6.67;100.00;102094.91;5051586;28;20029;-79
2022/10/31 05:24:43;;;;;;;11.32;7.43;;;;;;;6.63;100.00;102084.56;5051810;28;20086;-80
2022/10/31 05:27:08;;;;;;;11.05;7.60;;;;;;;6.57;100.00;102090.16;5051731;28;20037;-80
2022/10/31 05:29:34;;;;;;;10.35;7.10;;;;;;;6.51;100.00;102084.28;5051158;28;20065;-81
2022/10/31 05:31:59;;;;;;;10.65;6.38;;;;;;;6.45;100.00;102081.09;5051924;28;20037;-80
2022/10/31 05:34:25;;;;;;;9.63;6.30;;;;;;;6.39;100.00;102084.06;5051372;28;20370;-80
2022/10/31 05:36:50;;;;;;;9.98;5.97;;;;;;;6.34;100.00;102077.28;5051856;28;20534;-80
2022/10/31 05:39:15;;;;;;;9.85;6.38;;;;;;;6.30;100.00;102073.06;5051858;28;20079;-80
2022/10/31 05:41:41;;;;;;;8.57;5.95;;;;;;;6.30;100.00;102077.47;5051167;28;20033;-80
2022/10/31 05:44:06;;;;;;;9.23;5.90;;;;;;;6.27;100.00;102075.88;5051599;28;20034;-80
2022/10/31 05:46:31;;;;;;;11.63;7.20;;;;;;;6.25;100.00;102072.44;5049724;28;20037;-80
2022/10/31 05:48:57;;;;;;;13.15;6.95;;;;;;;6.24;100.00;102081.31;5050349;28;20065;-80
2022/10/31 05:51:22;;;;;;;9.85;6.38;;;;;;;6.21;100.00;102073.56;5050985;28;20033;-80
2022/10/31 05:53:47;;;;;;;9.23;6.00;;;;;;;6.20;100.00;102071.00;5051618;28;20470;-80
2022/10/31 05:56:13;;;;;;;8.52;5.30;;;;;;;6.19;100.00;102072.75;5051822;28;20115;-80
2022/10/31 05:58:38;;;;;;;7.65;5.05;;;;;;;6.16;100.00;102068.50;5051148;28;20234;-79
2022/10/31 06:01:05;;;;;;;10.95;6.43;;;;;;;6.15;100.00;102066.81;5050468;28;20130;-79
2022/10/31 06:03:30;;;;;;;8.93;5.35;;;;;;;6.11;100.00;102069.69;5052794;28;20483;-80
2022/10/31 06:05:55;;;;;;;8.57;5.00;;;;;;;6.06;100.00;102067.28;5055153;28;20064;-80
2022/10/31 06:08:21;;;;;;;8.05;4.93;;;;;;;6.05;100.00;102065.56;5053195;28;20029;-79
2022/10/31 06:10:46;;;;;;;10.10;6.75;;;;;;;6.01;100.00;102071.94;5055105;28;20061;-80
2022/10/31 06:13:11;;;;;;;7.03;4.70;;;;;;;5.95;100.00;102069.59;5054791;28;20029;-79
2022/10/31 06:15:37;;;;;;;8.18;5.30;;;;;;;5.89;100.00;102064.63;5054578;28;20029;-80
2022/10/31 06:18:04;;;;;;;10.25;4.53;;;;;;;5.84;100.00;102064.84;5054562;28;20072;-79
2022/10/31 06:20:30;;;;;;;7.53;5.30;;;;;;;5.83;100.00;102069.25;5054259;28;20025;-79
2022/10/31 06:22:56;;;;;;;7.82;5.45;;;;;;;5.82;100.00;102067.59;5054642;28;20056;-80
2022/10/31 06:25:21;;;;;;;10.90;6.43;;;;;;;5.86;100.00;102072.69;5054783;28;20060;-80
2022/10/31 06:27:46;;;;;;;9.52;5.65;;;;;;;5.87;100.00;102072.63;5053987;28;20033;-78
2022/10/31 06:30:12;;;;;;;10.30;6.60;;;;;;;5.88;100.00;102069.06;5054460;28;20500;-80
2022/10/31 06:32:37;;;;;;;9.80;5.93;;;;;;;5.88;100.00;102073.47;5054314;28;20029;-79
2022/10/31 06:35:03;;;;;;;11.43;7.70;;;;;;;5.87;100.00;102074.38;5054661;28;20091;-79
2022/10/31 06:37:28;;;;;;;8.75;5.55;;;;;;;5.85;100.00;102069.19;5053771;28;20067;-79
2022/10/31 06:39:54;;;;;;;8.32;5.20;;;;;;;5.84;100.00;102067.50;5054279;28;20039;-78
2022/10/31 06:42:19;;;;;;;8.05;5.18;;;;;;;5.83;100.00;102065.78;5054474;28;20141;-78
2022/10/31 06:44:44;;;;;;;6.65;4.90;;;;;;;5.83;100.00;102077.19;5054204;28;20032;-80
2022/10/31 06:47:10;;;;;;;11.40;6.97;;;;;;;5.85;100.00;102057.78;5053960;28;20025;-78
2022/10/31 06:49:35;;;;;;;7.47;5.47;;;;;;;5.85;100.00;102057.78;5052677;28;20032;-77
2022/10/31 06:52:00;;;;;;;7.28;5.47;;;;;;;5.85;100.00;102071.81;5054245;28;20385;-78
2022/10/31 06:54:26;;;;;;;6.60;5.40;;;;;;;5.87;100.00;102072.63;5053958;28;20025;-78
2022/10/31 06:56:52;;;;;;;11.25;7.80;;;;;;;5.88;100.00;102078.75;5053453;28;20465;-78
2022/10/31 06:59:17;;;;;;;10.32;6.65;;;;;;;5.92;100.00;102081.16;5054104;28;20040;-78
2022/10/31 07:01:43;;;;;;;10.70;6.47;;;;;;;5.94;100.00;102086.34;5054385;28;20036;-79
2022/10/31 07:04:11;;;;;;;11.68;7.75;;;;;;;5.96;100.00;102095.06;5053694;28;20400;-79
2022/10/31 07:06:37;;;;;;;15.40;9.00;;;;;;;6.01;100.00;102093.06;5053215;28;20124;-79
2022/10/31 07:09:02;;;;;;;14.15;8.00;;;;;;;6.01;100.00;102085.16;5053406;28;20120;-79
2022/10/31 07:11:27;;;;;;;15.77;8.27;;;;;;;6.03;100.00;102087.72;5053757;28;20037;-80
2022/10/31 07:13:53;;;;;;;14.00;9.15;;;;;;;6.08;100.00;102091.00;5052989;28;20029;-79
2022/10/31 07:16:18;;;;;;;15.95;9.57;;;;;;;6.14;100.00;102096.78;5053250;28;20044;-79
2022/10/31 07:18:43;;;;;;;14.05;9.32;;;;;;;6.21;100.00;102101.75;5052025;28;20041;-79
2022/10/31 07:21:09;;;;;;;13.63;8.23;;;;;;;6.27;100.00;102101.44;5053614;28;20065;-79
2022/10/31 07:23:34;;;;;;;19.00;10.77;;;;;;;6.37;100.00;102101.81;5051692;28;20485;-80
2022/10/31 07:25:59;;;;;;;14.20;8.73;;;;;;;6.47;100.00;102100.41;5053489;28;20025;-79
2022/10/31 07:28:26;;;;;;;17.48;10.30;;;;;;;6.62;100.00;102102.22;5052997;28;20033;-80
2022/10/31 07:30:57;;;;;;;24.25;12.23;;;;;;;6.80;100.00;102107.47;5053242;28;20040;-79
2022/10/31 07:33:23;;;;;;;20.17;11.30;;;;;;;6.91;100.00;102101.56;5053299;28;20104;-81
2022/10/31 07:35:48;;;;;;;20.63;10.63;;;;;;;7.03;100.00;102101.75;5052862;28;20052;-80
2022/10/31 07:38:14;;;;;;;16.63;10.68;;;;;;;7.15;100.00;102094.06;5052924;28;20036;-78
2022/10/31 07:40:41;;;;;;;18.83;10.88;;;;;;;7.25;100.00;102097.91;5051821;28;20033;-78
2022/10/31 07:43:06;;;;;;;21.60;13.18;;;;;;;7.34;100.00;102101.81;5053141;28;20397;-77
2022/10/31 07:45:32;;;;;;;20.60;11.82;;;;;;;7.49;100.00;102094.78;5054610;28;20038;-77
2022/10/31 07:47:57;;;;;;;26.33;14.50;;;;;;;7.67;100.00;102100.81;5042361;28;20037;-78
2022/10/31 07:50:28;;;;;;;25.42;14.13;;;;;;;7.86;100.00;102095.31;5030007;28;20108;-79
2022/10/31 07:53:07;;;;;;;23.90;13.07;;;;;;;8.00;100.00;102094.47;5030213;28;20087;-79
2022/10/31 07:55:33;;;;;;;17.58;10.70;;;;;;;8.10;100.00;102093.81;5030276;28;20033;-79
2022/10/31 07:58:01;;;;;;;18.08;11.95;;;;;;;8.22;100.00;102091.38;5029488;28;20033;-77
2022/10/31 08:00:27;;;;;;;20.23;11.52;;;;;;;8.32;100.00;102092.53;5029839;28;20087;-77
2022/10/31 08:02:59;;;;;;;18.92;10.60;;;;;;;8.40;100.00;102090.25;5029634;28;20037;-78
2022/10/31 08:05:25;;;;;;;17.25;11.80;;;;;;;8.45;100.00;102085.56;5030164;28;20124;-77
2022/10/31 08:07:50;;;;;;;18.83;11.10;;;;;;;8.57;100.00;102088.38;5029788;28;20373;-77
2022/10/31 08:10:15;;;;;;;27.48;14.60;;;;;;;8.71;100.00;102084.91;5030008;28;20462;-76
2022/10/31 08:12:41;;;;;;;32.17;17.17;;;;;;;8.89;100.00;102094.34;5028222;28;20045;-80
2022/10/31 08:15:07;;;;;;;39.08;18.63;;;;;;;9.07;100.00;102088.81;5029963;28;20120;-78
2022/10/31 08:17:35;;;;;;;40.03;19.05;;;;;;;9.26;100.00;102097.28;5029570;28;20052;-77
2022/10/31 08:20:01;;;;;;;33.83;19.08;;;;;;;9.43;100.00;102101.47;5029491;28;20520;-77
2022/10/31 08:22:26;;;;;;;36.10;18.83;;;;;;;9.60;100.00;102094.19;5030011;28;20057;-77
2022/10/31 08:24:51;;;;;;;34.70;17.80;;;;;;;9.74;100.00;102101.28;5027091;28;20038;-78
2022/10/31 08:27:17;;;;;;;33.30;18.48;;;;;;;9.88;100.00;102099.41;5029267;28;20025;-77
2022/10/31 08:29:42;;;;;;;36.08;18.40;;;;;;;10.01;100.00;102099.41;5029845;28;20482;-79
2022/10/31 08:32:07;;;;;;;33.47;17.75;;;;;;;10.09;100.00;102095.38;5029660;28;20792;-78
2022/10/31 08:34:33;;;;;;;35.25;18.30;;;;;;;10.18;100.00;102092.94;5029745;28;20469;-78
2022/10/31 08:36:58;;;;;;;32.35;17.58;;;;;;;10.24;100.00;102103.16;5029181;28;20478;-78
2022/10/31 08:39:23;;;;;;;34.35;17.52;;;;;;;10.23;100.00;102090.78;5029522;28;20033;-78
2022/10/31 08:41:50;;;;;;;32.60;18.35;;;;;;;10.24;100.00;102095.16;5029360;28;20103;-78
2022/10/31 08:44:15;;;;;;;31.67;17.33;;;;;;;10.31;100.00;102092.91;5029592;28;20033;-79
2022/10/31 08:46:41;;;;;;;35.90;17.75;;;;;;;10.43;100.00;102093.06;5029267;28;20107;-77
2022/10/31 08:49:06;;;;;;;30.73;16.98;;;;;;;10.51;100.00;102088.03;5028966;28;20495;-78
2022/10/31 08:51:31;;;;;;;29.35;17.42;;;;;;;10.64;100.00;102088.03;5032652;28;20084;-78
2022/10/31 08:53:57;;;;;;;25.17;15.60;;;;;;;10.82;100.00;102085.88;5028938;28;20049;-77
2022/10/31 08:56:23;;;;;;;27.73;15.48;;;;;;;10.89;100.00;102082.66;5029685;28;20029;-79
2022/10/31 08:58:50;;;;;;;29.95;15.88;;;;;;;11.00;100.00;102081.91;5029329;28;20144;-82
2022/10/31 09:01:16;;;;;;;24.23;15.23;;;;;;;11.09;100.00;102081.22;5029236;28;20478;-79
2022/10/31 09:03:41;;;;;;;25.67;14.95;;;;;;;11.17;100.00;102079.81;5029543;28;20417;-78
2022/10/31 09:06:08;;;;;;;23.63;13.80;;;;;;;11.22;100.00;102083.81;5029049;28;20041;-78
2022/10/31 09:08:34;;;;;;;23.95;14.90;;;;;;;11.33;100.00;102080.38;5029336;28;20084;-77
2022/10/31 09:11:00;;;;;;;24.40;14.82;;;;;;;11.55;100.00;102073.44;5028589;28;20072;-75
2022/10/31 09:13:26;;;;;;;23.50;15.43;;;;;;;11.85;100.00;102070.25;5029253;28;20132;-76
2022/10/31 09:15:52;;;;;;;22.17;14.02;;;;;;;12.14;100.00;102067.19;5027842;28;20033;-79
2022/10/31 09:18:22;;;;;;;22.50;13.88;;;;;;;12.33;100.00;102063.91;5036712;28;20070;-77
2022/10/31 09:20:48;;;;;;;24.77;14.30;;;;;;;12.42;100.00;102052.53;5051306;28;20389;-77
2022/10/31 09:23:17;;;;;;;30.38;14.60;;;;;;;12.51;100.00;102040.28;5051106;28;20395;-77
2022/10/31 09:25:43;;;;;;;22.33;13.55;;;;;;;12.56;100.00;102037.25;5051599;28;20112;-77
2022/10/31 09:28:13;;;;;;;21.13;14.40;;;;;;;12.53;100.00;102033.84;5049906;28;20036;-77
2022/10/31 09:30:39;;;;;;;21.13;13.95;;;;;;;12.81;100.00;102031.63;5052157;28;20481;-79
2022/10/31 09:33:08;;;;;;;24.70;13.95;;;;;;;12.94;100.00;102020.75;5051102;28;20370;-79
2022/10/31 09:35:37;;;;;;;24.73;13.48;;;;;;;13.09;100.00;102018.66;5051163;28;20025;-81
2022/10/31 09:38:08;;;;;;;22.80;13.02;;;;;;;13.22;100.00;102013.16;5054053;28;20029;-83
2022/10/31 09:40:39;;;;;;;23.33;13.93;;;;;;;13.27;100.00;102016.31;5055381;28;20029;-78
2022/10/31 09:43:25;;;;;;;21.52;13.40;;;;;;;13.42;100.00;102016.00;5054820;28;20040;-79
2022/10/31 09:45:59;;;;;;;21.83;13.05;;;;;;;13.63;100.00;102010.66;5055625;28;20108;-80
2022/10/31 09:48:50;;;;;;;22.33;13.55;;;;;;;13.57;100.00;102018.25;5055498;28;20127;-80
2022/10/31 09:51:47;;;;;;;20.42;12.88;;;;;;;13.33;100.00;102007.78;5056006;28;20029;-81
2022/10/31 09:54:25;;;;;;;21.38;12.15;;;;;;;13.22;100.00;102002.47;5054641;28;20021;-79
2022/10/31 09:56:51;;;;;;;20.38;12.93;;;;;;;13.18;100.00;101998.34;5059109;28;20112;-81
2022/10/31 09:59:29;;;;;;;20.70;12.25;;;;;;;13.20;100.00;101996.41;5058264;28;20473;-81
2022/10/31 10:02:00;;;;;;;18.40;11.82;;;;;;;13.15;100.00;101982.56;5055280;28;20381;-78
2022/10/31 10:04:43;;;;;;;20.30;12.65;;;;;;;13.17;100.00;101983.31;5055091;28;20033;-81
2022/10/31 10:07:28;;;;;;;20.85;12.48;;;;;;;13.20;100.00;101983.03;5054499;28;20033;-78
2022/10/31 10:09:53;;;;;;;18.83;11.90;;;;;;;13.22;100.00;101989.09;5055071;28;20036;-78
2022/10/31 10:12:55;;;;;;;21.77;12.20;;;;;;;13.06;100.00;101989.50;5054710;28;20025;-79
2022/10/31 10:15:32;;;;;;;;;;;;;;;12.90;100.00;101983.75;5055149;28;20461;-79
2022/10/31 10:18:12;;;;;;;21.30;11.50;;;;;;;12.75;100.00;101977.84;5055106;28;19999;-79
2022/10/31 10:20:55;;;;;;;19.17;12.35;;;;;;;12.70;100.00;101980.88;5054836;28;20139;-78
2022/10/31 10:23:24;;;;;;;23.02;12.50;;;;;;;12.72;100.00;101972.75;5054177;28;20033;-78
2022/10/31 10:25:58;;;;;;;19.88;11.82;;;;;;;12.86;100.00;101965.31;5054710;28;20040;-79
2022/10/31 10:28:29;;;;;;;16.67;11.73;;;;;;;13.09;100.00;101967.03;5053836;28;20033;-79
2022/10/31 10:31:03;;;;;;;18.60;11.70;;;;;;;13.23;100.00;101958.72;5053342;28;20307;-80
2022/10/31 10:33:53;;;;;;;18.88;11.18;;;;;;;13.35;100.00;101947.03;5054812;28;20029;-80
2022/10/31 10:36:40;;;;;;;18.52;11.48;;;;;;;13.52;100.00;101942.91;5032966;28;20041;-80
2022/10/31 10:39:15;;;;;;;18.33;11.48;;;;;;;13.65;100.00;101939.19;5053713;28;20113;-81
2022/10/31 10:41:46;;;;;;;18.45;11.60;;;;;;;13.69;100.00;101941.47;5054491;28;20481;-80
2022/10/31 10:44:12;;;;;;;16.80;11.05;;;;;;;13.70;100.00;101942.31;5053881;28;20167;-79
2022/10/31 10:49:49;;;;;;;19.65;11.95;;;;;;;13.43;100.00;101926.81;5052931;28;20072;-76
2022/10/31 10:52:35;;;;;;;18.42;11.02;;;;;;;13.32;100.00;101933.06;5053566;28;20548;-78
2022/10/31 10:55:23;;;;;;;18.08;11.63;;;;;;;13.25;100.00;101934.56;5054257;28;20071;-77
2022/10/31 10:58:04;;;;;;;26.48;12.38;;;;;;;13.23;100.00;101935.50;5054116;28;20031;-79
2022/10/31 11:00:31;;;;;;;21.58;12.50;;;;;;;13.27;100.00;101936.13;5053730;28;20116;-80
2022/10/31 11:02:56;;;;;;;23.60;11.93;;;;;;;13.32;100.00;101931.22;5053750;28;20435;-79
2022/10/31 11:05:37;;;;;;;21.33;11.75;;;;;;;13.37;100.00;101925.50;5054291;28;20033;-80
2022/10/31 11:08:04;;;;;;;20.25;10.82;;;;;;;13.44;100.00;101926.69;5054350;28;20036;-79
2022/10/31 11:10:30;;;;;;;15.65;10.02;;;;;;;13.57;100.00;101926.50;5053602;28;20033;-80
2022/10/31 11:13:01;;;;;;;17.88;9.65;;;;;;;13.77;100.00;101918.56;5053545;28;20497;-79
2022/10/31 11:15:27;;;;;;;17.27;11.18;;;;;;;13.93;100.00;101922.44;5053527;28;20162;-80
2022/10/31 11:17:55;;;;;;;16.70;10.73;;;;;;;14.24;100.00;101917.06;5053826;28;20114;-79
2022/10/31 11:20:31;;;;;;;25.33;11.63;;;;;;;14.51;100.00;101909.34;5053333;28;20481;-78
2022/10/31 11:23:03;;;;;;;23.00;11.10;;;;;;;14.67;100.00;101903.47;5049723;28;20028;-79
2022/10/31 11:25:29;;;;;;;19.65;11.27;;;;;;;14.77;100.00;101891.75;5050548;28;20090;-78
2022/10/31 11:28:00;;;;;;;21.00;12.35;;;;;;;14.77;100.00;101883.72;5050751;28;20028;-77
2022/10/31 11:30:26;;;;;;;17.00;11.73;;;;;;;14.87;100.00;101882.88;5050552;28;20062;-78